createdAt,value
2023-05-11T00:01:10.595Z,5.53
2023-05-11T00:03:37.377Z,3.57
2023-05-11T00:06:04.644Z,3.93
2023-05-11T00:08:31.452Z,4.70
2023-05-11T00:11:01.032Z,3.57
2023-05-11T00:13:28.527Z,5.63
2023-05-11T00:15:55.358Z,4.03
2023-05-11T00:18:22.223Z,4.13
2023-05-11T00:20:48.994Z,5.30
2023-05-11T00:23:15.865Z,4.30
2023-05-11T00:25:42.573Z,6.17
2023-05-11T00:28:10.837Z,5.17
2023-05-11T00:30:37.666Z,4.60
2023-05-11T00:33:04.780Z,4.33
2023-05-11T00:35:32.899Z,4.93
2023-05-11T00:37:59.759Z,4.53
2023-05-11T00:40:26.602Z,4.97
2023-05-11T00:42:53.510Z,4.30
2023-05-11T00:45:20.427Z,5.50
2023-05-11T00:47:47.727Z,3.90
2023-05-11T00:50:14.802Z,4.87
2023-05-11T00:52:42.439Z,4.33
2023-05-11T00:55:10.393Z,5.77
2023-05-11T00:57:38.681Z,3.83
2023-05-11T01:00:07.314Z,4.83
2023-05-11T01:02:34.465Z,4.23
2023-05-11T01:05:01.972Z,4.53
2023-05-11T01:07:59.612Z,7.03
2023-05-11T01:10:37.714Z,4.13
2023-05-11T01:13:32.968Z,4.20
2023-05-11T01:16:05.138Z,3.60
2023-05-11T01:18:43.916Z,5.40
2023-05-11T01:21:12.526Z,3.70
2023-05-11T01:23:50.094Z,4.50
2023-05-11T01:26:17.552Z,3.10
2023-05-11T01:28:47.249Z,4.20
2023-05-11T01:31:15.985Z,4.07
2023-05-11T01:33:58.493Z,4.97
2023-05-11T01:36:31.774Z,4.10
2023-05-11T01:39:03.165Z,4.73
2023-05-11T01:41:33.674Z,3.53
2023-05-11T01:44:04.571Z,4.80
2023-05-11T01:46:33.764Z,4.30
2023-05-11T01:49:03.216Z,3.00
2023-05-11T01:51:37.199Z,3.00
2023-05-11T01:54:07.534Z,3.50
2023-05-11T01:56:36.447Z,3.53
2023-05-11T01:59:03.989Z,3.17
2023-05-11T02:01:32.474Z,4.23
2023-05-11T02:04:02.374Z,3.43
2023-05-11T02:06:29.834Z,3.17
2023-05-11T02:08:58.310Z,3.03
2023-05-11T02:11:28.171Z,4.07
2023-05-11T02:13:58.628Z,3.07
2023-05-11T02:16:28.518Z,2.70
2023-05-11T02:18:57.458Z,2.63
2023-05-11T02:21:25.549Z,3.53
2023-05-11T02:23:53.120Z,5.23
2023-05-11T02:26:19.968Z,2.83
2023-05-11T02:28:46.698Z,3.13
2023-05-11T02:31:19.651Z,3.57
2023-05-11T02:33:52.134Z,2.67
2023-05-11T02:36:23.095Z,3.03
2023-05-11T02:38:54.242Z,2.63
2023-05-11T02:41:28.129Z,3.40
2023-05-11T02:43:56.952Z,2.53
2023-05-11T02:46:29.139Z,2.93
2023-05-11T02:49:01.304Z,2.60
2023-05-11T02:51:37.281Z,2.10
2023-05-11T02:54:13.243Z,2.40
2023-05-11T02:56:41.339Z,2.27
2023-05-11T02:59:08.559Z,2.40
2023-05-11T03:01:35.813Z,3.47
2023-05-11T03:04:06.034Z,2.43
2023-05-11T03:06:33.659Z,3.10
2023-05-11T03:09:01.980Z,2.77
2023-05-11T03:11:29.322Z,2.57
2023-05-11T03:13:56.636Z,3.27
2023-05-11T03:16:24.764Z,5.07
2023-05-11T03:18:52.348Z,3.60
2023-05-11T03:21:21.595Z,3.07
2023-05-11T03:23:49.595Z,2.50
2023-05-11T03:26:18.969Z,2.40
2023-05-11T03:28:47.138Z,2.60
2023-05-11T03:31:14.014Z,3.27
2023-05-11T03:33:40.762Z,3.03
2023-05-11T03:36:10.731Z,2.47
2023-05-11T03:38:38.820Z,2.60
2023-05-11T03:41:05.624Z,3.17
2023-05-11T03:43:34.934Z,4.77
2023-05-11T03:46:04.146Z,3.77
2023-05-11T03:48:32.456Z,3.70
2023-05-11T03:50:59.593Z,2.80
2023-05-11T03:53:26.613Z,3.07
2023-05-11T03:55:53.426Z,3.33
2023-05-11T03:58:20.571Z,2.83
2023-05-11T04:00:47.377Z,4.13
2023-05-11T04:03:14.511Z,3.00
2023-05-11T04:05:41.564Z,3.60
2023-05-11T04:08:09.313Z,3.40
2023-05-11T04:10:36.136Z,3.37
2023-05-11T04:13:03.209Z,3.57
2023-05-11T04:15:30.330Z,6.23
2023-05-11T04:17:57.191Z,5.13
2023-05-11T04:20:26.843Z,3.97
2023-05-11T04:22:53.607Z,4.87
2023-05-11T04:25:20.360Z,4.70
2023-05-11T04:27:47.146Z,5.70
2023-05-11T04:30:14.001Z,4.20
2023-05-11T04:32:40.828Z,4.10
2023-05-11T04:35:07.920Z,5.33
2023-05-11T04:37:34.791Z,5.47
2023-05-11T04:40:01.537Z,4.90
2023-05-11T04:42:30.387Z,4.73
2023-05-11T04:44:57.113Z,6.53
2023-05-11T04:47:23.972Z,5.40
2023-05-11T04:49:52.128Z,5.10
2023-05-11T04:52:18.934Z,5.27
2023-05-11T04:54:45.811Z,6.57
2023-05-11T04:57:13.460Z,5.63
2023-05-11T04:59:40.256Z,7.17
2023-05-11T05:02:07.081Z,6.20
2023-05-11T05:04:36.276Z,5.20
2023-05-11T05:07:03.716Z,4.50
2023-05-11T05:09:30.497Z,9.07
2023-05-11T05:11:57.193Z,6.13
2023-05-11T05:14:23.951Z,4.67
2023-05-11T05:16:50.820Z,7.60
2023-05-11T05:19:17.619Z,4.97
2023-05-11T05:21:44.357Z,4.67
2023-05-11T05:24:12.388Z,5.67
2023-05-11T05:26:39.181Z,6.33
2023-05-11T05:29:07.267Z,5.77
2023-05-11T05:31:34.102Z,6.57
2023-05-11T05:34:00.981Z,5.60
2023-05-11T05:36:27.845Z,5.97
2023-05-11T05:38:54.603Z,4.40
2023-05-11T05:41:22.537Z,6.00
2023-05-11T05:43:49.392Z,4.60
2023-05-11T05:46:16.399Z,4.40
2023-05-11T05:48:43.576Z,4.60
2023-05-11T05:51:10.475Z,7.53
2023-05-11T05:53:37.899Z,3.80
2023-05-11T05:56:05.134Z,4.90
2023-05-11T05:58:32.019Z,4.63
2023-05-11T06:00:59.133Z,3.93
2023-05-11T06:03:28.544Z,3.53
2023-05-11T06:05:56.258Z,3.70
2023-05-11T06:08:23.010Z,4.53
2023-05-11T06:10:49.717Z,4.10
2023-05-11T06:13:16.527Z,3.37
2023-05-11T06:15:46.964Z,4.03
2023-05-11T06:18:13.852Z,4.10
2023-05-11T06:20:40.656Z,3.90
2023-05-11T06:23:08.182Z,4.43
2023-05-11T06:25:35.989Z,3.47
2023-05-11T06:28:02.834Z,6.97
2023-05-11T06:30:29.972Z,5.30
2023-05-11T06:32:56.734Z,3.50
2023-05-11T06:35:23.667Z,3.57
2023-05-11T06:37:50.474Z,3.23
2023-05-11T06:40:17.422Z,3.83
2023-05-11T06:42:44.621Z,6.10
2023-05-11T06:45:11.635Z,4.00
2023-05-11T06:47:38.476Z,3.57
2023-05-11T06:50:06.022Z,3.30
2023-05-11T06:52:32.843Z,3.43
2023-05-11T06:54:59.526Z,3.83
2023-05-11T06:57:26.250Z,5.37
2023-05-11T06:59:53.058Z,3.43
2023-05-11T07:02:19.805Z,4.70
2023-05-11T07:04:46.611Z,3.63
2023-05-11T07:07:13.345Z,4.70
2023-05-11T07:09:41.897Z,3.37
2023-05-11T07:12:09.044Z,3.27
2023-05-11T07:14:35.953Z,3.77
2023-05-11T07:17:02.859Z,3.90
2023-05-11T07:19:29.780Z,2.80
2023-05-11T07:21:56.663Z,3.03
2023-05-11T07:24:23.357Z,3.90
2023-05-11T07:26:51.190Z,4.00
2023-05-11T07:29:17.889Z,3.30
2023-05-11T07:31:44.838Z,3.67
2023-05-11T07:34:11.625Z,3.67
2023-05-11T07:36:38.315Z,2.50
2023-05-11T07:39:05.082Z,3.00
2023-05-11T07:41:31.982Z,2.67
2023-05-11T07:44:01.075Z,3.17
2023-05-11T07:46:28.090Z,2.53
2023-05-11T07:49:03.426Z,3.67
2023-05-11T07:51:35.006Z,2.97
2023-05-11T07:54:01.825Z,3.40
2023-05-11T07:56:28.522Z,2.60
2023-05-11T07:58:55.238Z,3.60
2023-05-11T08:01:22.430Z,2.73
2023-05-11T08:03:49.468Z,3.03
2023-05-11T08:06:16.239Z,5.43
2023-05-11T08:08:43.011Z,1.97
2023-05-11T08:11:09.782Z,2.80
2023-05-11T08:13:36.575Z,2.30
2023-05-11T08:16:03.400Z,3.93
2023-05-11T08:18:30.240Z,2.17
2023-05-11T08:20:57.262Z,2.33
2023-05-11T08:23:24.188Z,2.33
2023-05-11T08:25:53.009Z,2.67
2023-05-11T08:28:35.321Z,2.70
2023-05-11T08:33:54.766Z,2.00
2023-05-11T08:36:21.817Z,2.20
2023-05-11T08:38:48.716Z,2.30
2023-05-11T08:41:15.653Z,3.40
2023-05-11T08:43:45.866Z,1.83
2023-05-11T08:46:15.877Z,2.90
2023-05-11T08:48:42.762Z,2.07
2023-05-11T08:51:09.627Z,4.90
2023-05-11T08:53:36.417Z,2.07
2023-05-11T08:56:06.932Z,2.17
2023-05-11T08:58:35.060Z,1.97
2023-05-11T09:01:02.893Z,2.67
2023-05-11T09:03:30.909Z,2.10
2023-05-11T09:05:58.953Z,2.90
2023-05-11T09:08:30.609Z,2.33
2023-05-11T09:10:58.133Z,3.27
2023-05-11T09:13:26.407Z,1.83
2023-05-11T09:15:53.963Z,3.33
2023-05-11T09:18:20.799Z,1.80
2023-05-11T09:20:47.583Z,2.83
2023-05-11T09:23:17.757Z,1.50
2023-05-11T09:25:44.583Z,2.73
2023-05-11T09:28:24.896Z,2.47
2023-05-11T09:30:52.195Z,3.90
2023-05-11T09:33:24.388Z,1.80
2023-05-11T09:35:51.427Z,2.20
2023-05-11T09:38:20.770Z,2.10
2023-05-11T09:40:56.769Z,1.70
2023-05-11T09:43:26.350Z,2.60
2023-05-11T09:45:55.708Z,4.93
2023-05-11T09:48:28.568Z,3.93
2023-05-11T09:51:08.537Z,1.77
2023-05-11T09:53:44.724Z,1.70
2023-05-11T09:56:15.862Z,1.80
2023-05-11T09:58:49.329Z,2.73
2023-05-11T10:01:18.117Z,1.60
2023-05-11T10:03:49.131Z,2.43
2023-05-11T10:06:17.516Z,5.87
2023-05-11T10:08:46.774Z,1.77
2023-05-11T10:11:13.646Z,2.07
2023-05-11T10:13:40.857Z,2.90
2023-05-11T10:16:10.005Z,2.73
2023-05-11T10:18:37.307Z,3.20
2023-05-11T10:21:05.040Z,2.17
2023-05-11T10:23:33.944Z,1.90
2023-05-11T10:26:01.328Z,2.00
2023-05-11T10:28:30.571Z,2.87
2023-05-11T10:30:59.434Z,3.13
2023-05-11T10:33:26.502Z,3.87
2023-05-11T10:35:54.318Z,5.07
2023-05-11T10:38:22.632Z,3.10
2023-05-11T10:40:52.910Z,2.10
2023-05-11T10:43:28.866Z,2.80
2023-05-11T10:46:13.931Z,1.93
2023-05-11T10:49:00.867Z,2.93
2023-05-11T10:51:47.470Z,1.93
2023-05-11T10:54:21.673Z,2.00
2023-05-11T10:57:14.492Z,1.90
2023-05-11T10:59:46.637Z,1.73
2023-05-11T11:02:14.025Z,3.80
2023-05-11T11:04:49.817Z,2.53
2023-05-11T11:07:18.797Z,2.70
2023-05-11T11:10:05.339Z,2.50
2023-05-11T11:12:35.081Z,1.90
2023-05-11T11:15:07.177Z,1.80
2023-05-11T11:17:35.852Z,1.33
2023-05-11T11:20:04.985Z,3.03
2023-05-11T11:22:34.875Z,2.10
2023-05-11T11:25:02.816Z,3.37
2023-05-11T11:27:49.806Z,2.30
2023-05-11T11:30:18.527Z,6.57
2023-05-11T11:32:47.182Z,2.87
2023-05-11T11:35:46.562Z,2.00
2023-05-11T11:38:15.315Z,2.63
2023-05-11T11:40:51.214Z,3.70
2023-05-11T11:43:29.287Z,2.77
2023-05-11T11:46:01.107Z,1.87
2023-05-11T11:48:36.473Z,1.93
2023-05-11T11:51:10.898Z,1.40
2023-05-11T11:53:37.947Z,2.03
2023-05-11T11:56:07.672Z,1.50
2023-05-11T11:58:40.315Z,2.20
2023-05-11T12:01:13.431Z,1.50
2023-05-11T12:03:42.368Z,1.77
2023-05-11T12:06:11.092Z,1.97
2023-05-11T12:08:39.136Z,5.37
2023-05-11T12:11:07.242Z,1.70
2023-05-11T12:13:35.895Z,2.73
2023-05-11T12:16:14.412Z,1.63
2023-05-11T12:18:53.684Z,1.87
2023-05-11T12:21:26.402Z,1.53
2023-05-11T12:23:58.107Z,2.30
2023-05-11T12:26:26.622Z,1.90
2023-05-11T12:29:09.118Z,1.30
2023-05-11T12:31:41.222Z,2.77
2023-05-11T12:34:15.045Z,2.10
2023-05-11T12:36:42.230Z,2.50
2023-05-11T12:39:16.546Z,2.43
2023-05-11T12:41:44.121Z,3.67
2023-05-11T12:44:11.884Z,1.87
2023-05-11T12:46:39.356Z,2.47
2023-05-11T12:49:06.659Z,1.50
2023-05-11T12:52:01.676Z,1.97
2023-05-11T12:54:29.391Z,2.37
2023-05-11T12:56:56.463Z,3.43
2023-05-11T12:59:37.939Z,2.43
2023-05-11T13:02:05.748Z,1.80
2023-05-11T13:04:33.288Z,1.80
2023-05-11T13:07:00.066Z,4.90
2023-05-11T13:09:28.325Z,4.40
2023-05-11T13:12:30.960Z,3.40
2023-05-11T13:15:13.028Z,3.17
2023-05-11T13:17:42.800Z,2.00
2023-05-11T13:20:18.166Z,3.13
2023-05-11T13:22:45.746Z,5.00
2023-05-11T13:25:12.814Z,3.43
2023-05-11T13:27:39.661Z,2.80
2023-05-11T13:30:07.032Z,3.10
2023-05-11T13:32:34.009Z,1.73
2023-05-11T13:35:04.877Z,5.60
2023-05-11T13:37:32.525Z,3.07
2023-05-11T13:39:59.420Z,2.80
2023-05-11T13:42:26.320Z,2.30
2023-05-11T13:44:53.041Z,2.17
2023-05-11T13:47:19.779Z,2.23
2023-05-11T13:49:46.501Z,2.10
2023-05-11T13:52:13.397Z,2.17
2023-05-11T13:54:40.143Z,3.20
2023-05-11T13:57:07.628Z,1.90
2023-05-11T13:59:34.456Z,1.70
2023-05-11T14:02:01.716Z,2.60
2023-05-11T14:04:28.809Z,2.00
2023-05-11T14:06:55.576Z,2.30
2023-05-11T14:09:23.505Z,1.97
2023-05-11T14:11:50.951Z,2.57
2023-05-11T14:14:17.952Z,2.43
2023-05-11T14:16:44.888Z,2.03
2023-05-11T14:19:11.985Z,2.40
2023-05-11T14:21:38.864Z,2.00
2023-05-11T14:24:11.961Z,3.00
2023-05-11T14:26:39.391Z,2.23
2023-05-11T14:29:06.139Z,2.30
2023-05-11T14:31:35.249Z,2.80
2023-05-11T14:34:03.502Z,3.07
2023-05-11T14:36:30.500Z,2.23
2023-05-11T14:38:57.236Z,1.73
2023-05-11T14:41:24.099Z,2.63
2023-05-11T14:43:51.453Z,1.60
2023-05-11T14:46:18.972Z,1.80
2023-05-11T14:48:45.944Z,1.80
2023-05-11T14:51:12.744Z,1.97
2023-05-11T14:53:39.762Z,2.10
2023-05-11T14:56:07.398Z,2.43
2023-05-11T14:58:34.320Z,2.10
2023-05-11T15:01:01.032Z,2.30
2023-05-11T15:03:27.996Z,3.53
2023-05-11T15:05:54.813Z,2.07
2023-05-11T15:08:29.522Z,2.20
2023-05-11T15:10:57.322Z,2.20
2023-05-11T15:13:24.330Z,2.63
2023-05-11T15:15:51.965Z,2.20
2023-05-11T15:18:19.363Z,2.60
2023-05-11T15:20:46.948Z,4.37
2023-05-11T15:23:17.318Z,2.70
2023-05-11T15:25:47.211Z,2.10
2023-05-11T15:28:14.224Z,3.37
2023-05-11T15:30:42.192Z,2.30
2023-05-11T15:33:10.825Z,3.40
2023-05-11T15:35:38.315Z,2.20
2023-05-11T15:38:05.735Z,2.43
2023-05-11T15:40:32.752Z,2.30
2023-05-11T15:42:59.618Z,2.80
2023-05-11T15:45:26.996Z,2.07
2023-05-11T15:47:54.400Z,2.17
2023-05-11T15:50:22.398Z,4.07
2023-05-11T15:52:49.350Z,3.10
2023-05-11T15:55:16.307Z,3.70
2023-05-11T15:57:43.751Z,2.03
2023-05-11T16:00:11.595Z,2.97
2023-05-11T16:02:57.311Z,2.77
2023-05-11T16:05:24.137Z,2.80
2023-05-11T16:08:09.582Z,2.50
2023-05-11T16:10:54.930Z,2.90
2023-05-11T16:13:21.683Z,4.40
2023-05-11T16:16:07.337Z,2.97
2023-05-11T16:18:34.327Z,3.87
2023-05-11T16:21:01.128Z,2.93
2023-05-11T16:23:28.572Z,3.83
2023-05-11T16:25:56.590Z,4.73
2023-05-11T16:28:23.677Z,2.50
2023-05-11T16:30:50.357Z,4.17
2023-05-11T16:33:17.491Z,2.27
2023-05-11T16:35:44.288Z,2.60
2023-05-11T16:38:18.267Z,3.27
2023-05-11T16:40:45.033Z,4.27
2023-05-11T16:43:12.360Z,3.07
2023-05-11T16:45:45.566Z,2.57
2023-05-11T16:48:12.341Z,2.33
2023-05-11T16:50:39.241Z,2.10
2023-05-11T16:53:06.093Z,1.40
2023-05-11T16:55:32.868Z,2.07
2023-05-11T16:58:02.411Z,1.30
2023-05-11T17:00:29.210Z,2.97
2023-05-11T17:02:56.741Z,3.07
2023-05-11T17:05:24.119Z,1.87
2023-05-11T17:07:50.914Z,1.50
2023-05-11T17:10:18.613Z,3.03
2023-05-11T17:12:45.586Z,1.90
2023-05-11T17:15:12.820Z,2.83
2023-05-11T17:17:39.987Z,1.10
2023-05-11T17:20:08.001Z,1.50
2023-05-11T17:22:35.200Z,1.33
2023-05-11T17:25:05.047Z,2.00
2023-05-11T17:27:32.233Z,1.50
2023-05-11T17:29:58.956Z,1.80
2023-05-11T17:32:25.859Z,1.10
2023-05-11T17:34:52.973Z,1.53
2023-05-11T17:37:31.198Z,1.97
2023-05-11T17:40:02.483Z,2.13
2023-05-11T17:42:29.575Z,4.60
2023-05-11T17:44:56.520Z,1.90
2023-05-11T17:47:23.384Z,2.40
2023-05-11T17:49:50.283Z,2.27
2023-05-11T17:52:17.375Z,4.93
2023-05-11T17:54:44.212Z,2.03
2023-05-11T17:57:10.995Z,1.60
2023-05-11T17:59:37.729Z,4.07
2023-05-11T18:02:04.618Z,4.73
2023-05-11T18:04:31.376Z,4.33
2023-05-11T18:06:58.108Z,4.03
2023-05-11T18:09:25.052Z,1.77
2023-05-11T18:11:51.751Z,1.87
2023-05-11T18:14:18.529Z,2.10
2023-05-11T18:16:45.242Z,1.40
2023-05-11T18:19:11.979Z,1.50
2023-05-11T18:21:38.725Z,3.50
2023-05-11T18:24:06.378Z,2.73
2023-05-11T18:26:33.253Z,1.47
2023-05-11T18:29:00.000Z,1.33
2023-05-11T18:31:28.292Z,2.60
2023-05-11T18:33:55.677Z,1.27
2023-05-11T18:36:23.147Z,1.70
2023-05-11T18:38:49.965Z,1.60
2023-05-11T18:41:16.824Z,1.77
2023-05-11T18:43:48.471Z,1.67
2023-05-11T18:46:15.537Z,2.27
2023-05-11T18:48:42.278Z,2.07
2023-05-11T18:51:10.053Z,2.13
2023-05-11T18:53:37.016Z,1.30
2023-05-11T18:56:03.932Z,4.10
2023-05-11T18:58:30.666Z,2.63
2023-05-11T19:00:57.366Z,2.03
2023-05-11T19:03:24.281Z,3.07
2023-05-11T19:05:51.193Z,2.37
2023-05-11T19:08:18.794Z,3.33
2023-05-11T19:10:47.323Z,2.67
2023-05-11T19:13:14.204Z,3.67
2023-05-11T19:15:41.257Z,3.40
2023-05-11T19:18:08.233Z,3.23
2023-05-11T19:20:35.093Z,4.07
2023-05-11T19:23:02.348Z,4.67
2023-05-11T19:25:29.287Z,2.87
2023-05-11T19:27:57.481Z,4.07
2023-05-11T19:30:24.922Z,3.23
2023-05-11T19:32:51.864Z,3.87
2023-05-11T19:35:19.334Z,3.60
2023-05-11T19:37:49.135Z,2.30
2023-05-11T19:40:44.736Z,1.73
2023-05-11T19:43:07.167Z,2.30
2023-05-11T19:45:34.262Z,1.70
2023-05-11T19:48:01.092Z,2.97
2023-05-11T19:50:28.153Z,1.93
2023-05-11T19:52:55.208Z,2.63
2023-05-11T19:55:22.047Z,1.57
2023-05-11T19:57:48.893Z,2.03
2023-05-11T20:00:18.509Z,2.23
2023-05-11T20:02:46.831Z,1.93
2023-05-11T20:05:13.680Z,2.87
2023-05-11T20:07:40.533Z,6.10
2023-05-11T20:10:08.050Z,1.90
2023-05-11T20:12:34.886Z,3.83
2023-05-11T20:15:01.609Z,3.67
2023-05-11T20:17:28.441Z,3.97
2023-05-11T20:19:55.278Z,2.70
2023-05-11T20:22:22.823Z,2.93
2023-05-11T20:24:49.540Z,2.77
2023-05-11T20:27:16.453Z,2.67
2023-05-11T20:29:43.177Z,5.07
2023-05-11T20:32:10.025Z,4.50
2023-05-11T20:34:36.812Z,3.30
2023-05-11T20:37:03.905Z,4.70
2023-05-11T20:39:30.726Z,8.13
2023-05-11T20:41:59.480Z,7.33
2023-05-11T20:44:26.594Z,7.67
2023-05-11T20:46:53.396Z,5.43
2023-05-11T20:49:34.614Z,5.47
2023-05-11T20:52:05.094Z,8.20
2023-05-11T20:54:33.933Z,17.50
2023-05-11T20:57:01.749Z,6.47
2023-05-11T21:02:00.186Z,5.63
2023-05-11T21:04:27.109Z,6.20
2023-05-11T21:06:57.012Z,6.33
2023-05-11T21:09:24.049Z,4.50
2023-05-11T21:11:50.749Z,7.47
2023-05-11T21:14:17.482Z,4.30
2023-05-11T21:16:44.251Z,4.60
2023-05-11T21:19:10.980Z,4.57
2023-05-11T21:21:38.182Z,4.70
2023-05-11T21:24:06.332Z,4.07
2023-05-11T21:26:33.116Z,5.63
2023-05-11T21:29:00.097Z,5.83
2023-05-11T21:31:27.408Z,4.63
2023-05-11T21:33:54.291Z,3.87
2023-05-11T21:36:22.372Z,4.90
2023-05-11T21:38:49.488Z,4.87
2023-05-11T21:41:17.112Z,5.90
2023-05-11T21:43:43.874Z,12.93
2023-05-11T21:46:10.684Z,4.70
2023-05-11T21:48:37.418Z,4.00
2023-05-11T21:51:04.328Z,4.90
2023-05-11T21:53:31.054Z,4.83
2023-05-11T21:55:57.771Z,6.37
2023-05-11T21:58:24.484Z,4.90
2023-05-11T22:00:51.200Z,5.20
2023-05-11T22:03:18.061Z,3.90
2023-05-11T22:05:44.848Z,3.80
2023-05-11T22:08:15.469Z,5.27
2023-05-11T22:10:43.733Z,4.90
2023-05-11T22:13:10.532Z,5.63
2023-05-11T22:15:37.464Z,5.23
2023-05-11T22:18:04.322Z,5.80
2023-05-11T22:20:32.177Z,4.23
2023-05-11T22:22:59.655Z,5.37
2023-05-11T22:25:26.750Z,5.13
2023-05-11T22:27:53.722Z,4.67
2023-05-11T22:30:20.847Z,4.00
2023-05-11T22:32:47.846Z,4.53
2023-05-11T22:35:14.658Z,5.23
2023-05-11T22:37:41.445Z,5.07
2023-05-11T22:40:08.983Z,4.57
2023-05-11T22:42:35.988Z,4.77
2023-05-11T22:45:02.721Z,4.80
2023-05-11T22:47:29.660Z,5.60
2023-05-11T22:49:56.483Z,7.33
2023-05-11T22:52:23.440Z,5.53
2023-05-11T22:54:58.740Z,4.40
2023-05-11T22:57:26.599Z,4.30
2023-05-11T22:59:53.370Z,4.80
2023-05-11T23:02:20.309Z,4.27
2023-05-11T23:04:53.163Z,4.43
2023-05-11T23:07:20.092Z,4.87
2023-05-11T23:09:47.001Z,4.47
2023-05-11T23:12:14.083Z,4.87
2023-05-11T23:14:41.980Z,5.90
2023-05-11T23:17:08.757Z,5.43
2023-05-11T23:19:35.665Z,4.87
2023-05-11T23:22:02.638Z,5.27
2023-05-11T23:24:29.385Z,4.07
2023-05-11T23:26:56.156Z,6.33
2023-05-11T23:29:23.012Z,3.70
2023-05-11T23:31:51.152Z,4.23
2023-05-11T23:34:18.283Z,4.57
2023-05-11T23:36:45.070Z,4.20
2023-05-11T23:39:11.843Z,4.07
2023-05-11T23:41:38.711Z,4.50
2023-05-11T23:44:05.532Z,4.77
2023-05-11T23:46:32.744Z,6.97
2023-05-11T23:48:59.534Z,5.63
2023-05-11T23:51:26.296Z,5.77
2023-05-11T23:53:53.120Z,4.87
2023-05-11T23:56:19.948Z,4.60
2023-05-11T23:58:46.684Z,8.37
